sensor_id;sensor_type;location;lat;lon;timestamp;temperature;humidity
12426;DHT22;6277;49.824;9.562;2023-04-19T00:00:29;12.70;59.60
12426;DHT22;6277;49.824;9.562;2023-04-19T00:02:55;12.70;59.80
12426;DHT22;6277;49.824;9.562;2023-04-19T00:05:21;12.60;59.70
12426;DHT22;6277;49.824;9.562;2023-04-19T00:07:49;12.60;59.80
12426;DHT22;6277;49.824;9.562;2023-04-19T00:10:14;12.60;59.90
12426;DHT22;6277;49.824;9.562;2023-04-19T00:12:40;12.60;59.90
12426;DHT22;6277;49.824;9.562;2023-04-19T00:15:06;12.60;59.90
12426;DHT22;6277;49.824;9.562;2023-04-19T00:17:33;12.60;59.90
12426;DHT22;6277;49.824;9.562;2023-04-19T00:19:59;12.60;60.00
12426;DHT22;6277;49.824;9.562;2023-04-19T00:22:24;12.60;60.10
12426;DHT22;6277;49.824;9.562;2023-04-19T00:24:51;12.60;60.10
12426;DHT22;6277;49.824;9.562;2023-04-19T00:27:17;12.50;60.10
12426;DHT22;6277;49.824;9.562;2023-04-19T00:29:43;12.60;60.20
12426;DHT22;6277;49.824;9.562;2023-04-19T00:32:08;12.50;60.20
12426;DHT22;6277;49.824;9.562;2023-04-19T00:34:34;12.50;60.20
12426;DHT22;6277;49.824;9.562;2023-04-19T00:37:00;12.50;60.30
12426;DHT22;6277;49.824;9.562;2023-04-19T00:39:25;12.50;60.40
12426;DHT22;6277;49.824;9.562;2023-04-19T00:41:51;12.50;60.50
12426;DHT22;6277;49.824;9.562;2023-04-19T00:44:17;12.50;60.40
12426;DHT22;6277;49.824;9.562;2023-04-19T00:46:43;12.50;60.50
12426;DHT22;6277;49.824;9.562;2023-04-19T00:49:09;12.50;60.50
12426;DHT22;6277;49.824;9.562;2023-04-19T00:51:35;12.50;60.60
12426;DHT22;6277;49.824;9.562;2023-04-19T00:54:02;12.50;60.60
12426;DHT22;6277;49.824;9.562;2023-04-19T00:56:28;12.50;60.70
12426;DHT22;6277;49.824;9.562;2023-04-19T00:58:55;12.50;60.70
12426;DHT22;6277;49.824;9.562;2023-04-19T01:01:21;12.50;60.80
12426;DHT22;6277;49.824;9.562;2023-04-19T01:03:47;12.50;60.80
12426;DHT22;6277;49.824;9.562;2023-04-19T01:06:13;12.50;60.90
12426;DHT22;6277;49.824;9.562;2023-04-19T01:08:38;12.50;60.90
12426;DHT22;6277;49.824;9.562;2023-04-19T01:11:04;12.60;61.00
12426;DHT22;6277;49.824;9.562;2023-04-19T01:13:30;12.60;61.10
12426;DHT22;6277;49.824;9.562;2023-04-19T01:15:56;12.50;61.00
12426;DHT22;6277;49.824;9.562;2023-04-19T01:18:22;12.60;61.10
12426;DHT22;6277;49.824;9.562;2023-04-19T01:20:53;12.60;61.10
12426;DHT22;6277;49.824;9.562;2023-04-19T01:23:19;12.60;61.10
12426;DHT22;6277;49.824;9.562;2023-04-19T01:25:45;12.60;61.10
12426;DHT22;6277;49.824;9.562;2023-04-19T01:28:10;12.60;61.10
12426;DHT22;6277;49.824;9.562;2023-04-19T01:30:36;12.60;61.10
12426;DHT22;6277;49.824;9.562;2023-04-19T01:33:01;12.60;61.20
12426;DHT22;6277;49.824;9.562;2023-04-19T01:35:27;12.60;61.20
12426;DHT22;6277;49.824;9.562;2023-04-19T01:37:53;12.70;61.30
12426;DHT22;6277;49.824;9.562;2023-04-19T01:40:22;12.70;61.30
12426;DHT22;6277;49.824;9.562;2023-04-19T01:42:48;12.70;61.40
12426;DHT22;6277;49.824;9.562;2023-04-19T01:45:14;12.70;61.40
12426;DHT22;6277;49.824;9.562;2023-04-19T01:47:39;12.60;61.40
12426;DHT22;6277;49.824;9.562;2023-04-19T01:50:05;12.70;61.40
12426;DHT22;6277;49.824;9.562;2023-04-19T01:52:31;12.70;61.50
12426;DHT22;6277;49.824;9.562;2023-04-19T01:54:56;12.60;61.40
12426;DHT22;6277;49.824;9.562;2023-04-19T01:57:22;12.60;61.50
12426;DHT22;6277;49.824;9.562;2023-04-19T01:59:47;12.60;61.50
12426;DHT22;6277;49.824;9.562;2023-04-19T02:02:14;12.60;61.50
12426;DHT22;6277;49.824;9.562;2023-04-19T02:04:40;12.60;61.50
12426;DHT22;6277;49.824;9.562;2023-04-19T02:07:05;12.60;61.60
12426;DHT22;6277;49.824;9.562;2023-04-19T02:09:34;12.60;61.60
12426;DHT22;6277;49.824;9.562;2023-04-19T02:12:00;12.60;61.90
12426;DHT22;6277;49.824;9.562;2023-04-19T02:14:26;12.60;61.70
12426;DHT22;6277;49.824;9.562;2023-04-19T02:16:51;12.60;61.70
12426;DHT22;6277;49.824;9.562;2023-04-19T02:19:17;12.50;61.60
12426;DHT22;6277;49.824;9.562;2023-04-19T02:21:42;12.50;61.60
12426;DHT22;6277;49.824;9.562;2023-04-19T02:24:08;12.50;61.60
12426;DHT22;6277;49.824;9.562;2023-04-19T02:26:33;12.40;61.60
12426;DHT22;6277;49.824;9.562;2023-04-19T02:28:59;12.30;61.60
12426;DHT22;6277;49.824;9.562;2023-04-19T02:31:24;12.30;62.30
12426;DHT22;6277;49.824;9.562;2023-04-19T02:33:50;12.30;61.70
12426;DHT22;6277;49.824;9.562;2023-04-19T02:36:15;12.30;61.70
12426;DHT22;6277;49.824;9.562;2023-04-19T02:38:41;12.20;61.70
12426;DHT22;6277;49.824;9.562;2023-04-19T02:41:06;12.20;61.90
12426;DHT22;6277;49.824;9.562;2023-04-19T02:43:32;12.20;62.00
12426;DHT22;6277;49.824;9.562;2023-04-19T02:45:57;12.20;62.10
12426;DHT22;6277;49.824;9.562;2023-04-19T02:48:23;12.10;62.20
12426;DHT22;6277;49.824;9.562;2023-04-19T02:50:48;12.10;62.40
12426;DHT22;6277;49.824;9.562;2023-04-19T02:53:14;12.10;62.50
12426;DHT22;6277;49.824;9.562;2023-04-19T02:55:39;12.10;62.60
12426;DHT22;6277;49.824;9.562;2023-04-19T02:58:05;12.10;62.70
12426;DHT22;6277;49.824;9.562;2023-04-19T03:00:31;12.20;62.80
12426;DHT22;6277;49.824;9.562;2023-04-19T03:02:56;12.20;62.90
12426;DHT22;6277;49.824;9.562;2023-04-19T03:05:22;12.20;62.80
12426;DHT22;6277;49.824;9.562;2023-04-19T03:07:48;12.30;63.00
12426;DHT22;6277;49.824;9.562;2023-04-19T03:10:14;12.30;63.00
12426;DHT22;6277;49.824;9.562;2023-04-19T03:12:40;12.30;63.00
12426;DHT22;6277;49.824;9.562;2023-04-19T03:15:06;12.30;63.00
12426;DHT22;6277;49.824;9.562;2023-04-19T03:17:32;12.40;63.00
12426;DHT22;6277;49.824;9.562;2023-04-19T03:19:57;12.40;63.00
12426;DHT22;6277;49.824;9.562;2023-04-19T03:22:23;12.40;63.00
12426;DHT22;6277;49.824;9.562;2023-04-19T03:24:48;12.40;63.00
12426;DHT22;6277;49.824;9.562;2023-04-19T03:27:14;12.40;63.00
12426;DHT22;6277;49.824;9.562;2023-04-19T03:29:40;12.40;63.00
12426;DHT22;6277;49.824;9.562;2023-04-19T03:32:06;12.50;63.20
12426;DHT22;6277;49.824;9.562;2023-04-19T03:34:31;12.50;63.10
12426;DHT22;6277;49.824;9.562;2023-04-19T03:36:57;12.50;63.10
12426;DHT22;6277;49.824;9.562;2023-04-19T03:39:23;12.50;63.10
12426;DHT22;6277;49.824;9.562;2023-04-19T03:41:49;12.50;63.10
12426;DHT22;6277;49.824;9.562;2023-04-19T03:44:15;12.50;63.10
12426;DHT22;6277;49.824;9.562;2023-04-19T03:46:41;12.50;63.20
12426;DHT22;6277;49.824;9.562;2023-04-19T03:49:06;12.50;63.10
12426;DHT22;6277;49.824;9.562;2023-04-19T03:51:32;12.50;63.20
12426;DHT22;6277;49.824;9.562;2023-04-19T03:53:57;12.60;63.20
12426;DHT22;6277;49.824;9.562;2023-04-19T03:56:23;12.60;63.30
12426;DHT22;6277;49.824;9.562;2023-04-19T03:58:51;12.70;63.30
12426;DHT22;6277;49.824;9.562;2023-04-19T04:01:21;12.60;63.40
12426;DHT22;6277;49.824;9.562;2023-04-19T04:03:47;12.70;63.50
12426;DHT22;6277;49.824;9.562;2023-04-19T04:06:12;12.70;63.30
12426;DHT22;6277;49.824;9.562;2023-04-19T04:08:38;12.70;63.30
12426;DHT22;6277;49.824;9.562;2023-04-19T04:11:03;12.70;63.40
12426;DHT22;6277;49.824;9.562;2023-04-19T04:13:29;12.70;63.40
12426;DHT22;6277;49.824;9.562;2023-04-19T04:15:55;12.70;63.50
12426;DHT22;6277;49.824;9.562;2023-04-19T04:18:20;12.70;63.50
12426;DHT22;6277;49.824;9.562;2023-04-19T04:20:46;12.70;63.60
12426;DHT22;6277;49.824;9.562;2023-04-19T04:23:12;12.70;63.70
12426;DHT22;6277;49.824;9.562;2023-04-19T04:25:39;12.70;63.80
12426;DHT22;6277;49.824;9.562;2023-04-19T04:28:04;12.70;63.90
12426;DHT22;6277;49.824;9.562;2023-04-19T04:30:31;12.70;64.00
12426;DHT22;6277;49.824;9.562;2023-04-19T04:32:56;12.70;64.10
12426;DHT22;6277;49.824;9.562;2023-04-19T04:35:23;12.60;64.10
12426;DHT22;6277;49.824;9.562;2023-04-19T04:37:48;12.60;64.20
12426;DHT22;6277;49.824;9.562;2023-04-19T04:40:14;12.70;64.40
12426;DHT22;6277;49.824;9.562;2023-04-19T04:42:41;12.60;64.30
12426;DHT22;6277;49.824;9.562;2023-04-19T04:45:07;12.60;64.50
12426;DHT22;6277;49.824;9.562;2023-04-19T04:47:35;12.60;64.50
12426;DHT22;6277;49.824;9.562;2023-04-19T04:50:01;12.50;64.50
12426;DHT22;6277;49.824;9.562;2023-04-19T04:52:27;12.60;64.70
12426;DHT22;6277;49.824;9.562;2023-04-19T04:54:53;12.50;64.60
12426;DHT22;6277;49.824;9.562;2023-04-19T04:57:18;12.50;64.70
12426;DHT22;6277;49.824;9.562;2023-04-19T04:59:44;12.50;64.80
12426;DHT22;6277;49.824;9.562;2023-04-19T05:02:15;12.50;65.00
12426;DHT22;6277;49.824;9.562;2023-04-19T05:04:41;12.50;65.00
12426;DHT22;6277;49.824;9.562;2023-04-19T05:07:06;12.50;65.00
12426;DHT22;6277;49.824;9.562;2023-04-19T05:09:32;12.50;65.00
12426;DHT22;6277;49.824;9.562;2023-04-19T05:11:57;12.50;65.10
12426;DHT22;6277;49.824;9.562;2023-04-19T05:14:23;12.50;65.30
12426;DHT22;6277;49.824;9.562;2023-04-19T05:16:48;12.50;65.30
12426;DHT22;6277;49.824;9.562;2023-04-19T05:19:14;12.50;65.40
12426;DHT22;6277;49.824;9.562;2023-04-19T05:21:40;12.60;65.60
12426;DHT22;6277;49.824;9.562;2023-04-19T05:24:05;12.60;65.60
12426;DHT22;6277;49.824;9.562;2023-04-19T05:26:31;12.60;65.60
12426;DHT22;6277;49.824;9.562;2023-04-19T05:28:57;12.70;65.60
12426;DHT22;6277;49.824;9.562;2023-04-19T05:31:22;12.70;65.70
12426;DHT22;6277;49.824;9.562;2023-04-19T05:33:48;12.80;65.70
12426;DHT22;6277;49.824;9.562;2023-04-19T05:36:14;12.80;65.60
12426;DHT22;6277;49.824;9.562;2023-04-19T05:38:39;12.80;65.60
12426;DHT22;6277;49.824;9.562;2023-04-19T05:41:05;12.90;65.60
12426;DHT22;6277;49.824;9.562;2023-04-19T05:43:30;12.90;65.50
12426;DHT22;6277;49.824;9.562;2023-04-19T05:45:56;13.00;65.60
12426;DHT22;6277;49.824;9.562;2023-04-19T05:48:22;13.00;65.60
12426;DHT22;6277;49.824;9.562;2023-04-19T05:50:47;13.10;65.70
12426;DHT22;6277;49.824;9.562;2023-04-19T05:53:13;13.10;65.60
12426;DHT22;6277;49.824;9.562;2023-04-19T05:55:38;13.20;65.60
12426;DHT22;6277;49.824;9.562;2023-04-19T05:58:04;13.30;65.60
12426;DHT22;6277;49.824;9.562;2023-04-19T06:00:30;13.30;65.60
12426;DHT22;6277;49.824;9.562;2023-04-19T06:02:56;13.30;65.60
12426;DHT22;6277;49.824;9.562;2023-04-19T06:05:22;13.40;65.80
12426;DHT22;6277;49.824;9.562;2023-04-19T06:07:47;13.40;65.80
12426;DHT22;6277;49.824;9.562;2023-04-19T06:10:14;13.50;65.80
12426;DHT22;6277;49.824;9.562;2023-04-19T06:12:40;13.50;66.40
12426;DHT22;6277;49.824;9.562;2023-04-19T06:15:06;13.60;65.70
12426;DHT22;6277;49.824;9.562;2023-04-19T06:17:31;13.70;65.70
12426;DHT22;6277;49.824;9.562;2023-04-19T06:19:57;13.70;65.60
12426;DHT22;6277;49.824;9.562;2023-04-19T06:22:22;13.80;65.50
12426;DHT22;6277;49.824;9.562;2023-04-19T06:24:48;13.80;65.50
12426;DHT22;6277;49.824;9.562;2023-04-19T06:27:15;13.90;65.40
12426;DHT22;6277;49.824;9.562;2023-04-19T06:29:41;13.90;65.70
12426;DHT22;6277;49.824;9.562;2023-04-19T06:32:08;14.00;65.40
12426;DHT22;6277;49.824;9.562;2023-04-19T06:34:33;14.00;65.30
12426;DHT22;6277;49.824;9.562;2023-04-19T06:36:59;14.10;65.20
12426;DHT22;6277;49.824;9.562;2023-04-19T06:39:24;14.10;65.10
12426;DHT22;6277;49.824;9.562;2023-04-19T06:41:51;14.10;65.00
12426;DHT22;6277;49.824;9.562;2023-04-19T06:44:17;14.10;64.90
12426;DHT22;6277;49.824;9.562;2023-04-19T06:46:42;14.10;64.80
12426;DHT22;6277;49.824;9.562;2023-04-19T06:49:08;14.10;64.70
12426;DHT22;6277;49.824;9.562;2023-04-19T06:51:33;14.10;64.60
12426;DHT22;6277;49.824;9.562;2023-04-19T06:53:59;14.10;64.50
12426;DHT22;6277;49.824;9.562;2023-04-19T06:56:51;14.10;64.40
12426;DHT22;6277;49.824;9.562;2023-04-19T06:59:18;14.10;64.50
12426;DHT22;6277;49.824;9.562;2023-04-19T07:01:45;14.10;64.40
12426;DHT22;6277;49.824;9.562;2023-04-19T07:04:11;14.00;64.40
12426;DHT22;6277;49.824;9.562;2023-04-19T07:06:38;14.00;64.50
12426;DHT22;6277;49.824;9.562;2023-04-19T07:09:04;14.00;64.60
12426;DHT22;6277;49.824;9.562;2023-04-19T07:11:31;14.10;64.80
12426;DHT22;6277;49.824;9.562;2023-04-19T07:13:57;14.10;64.80
12426;DHT22;6277;49.824;9.562;2023-04-19T07:16:23;14.10;64.70
12426;DHT22;6277;49.824;9.562;2023-04-19T07:18:48;14.20;64.70
12426;DHT22;6277;49.824;9.562;2023-04-19T07:21:14;14.30;64.70
12426;DHT22;6277;49.824;9.562;2023-04-19T07:23:39;14.30;64.70
12426;DHT22;6277;49.824;9.562;2023-04-19T07:26:06;14.40;64.70
12426;DHT22;6277;49.824;9.562;2023-04-19T07:28:31;14.40;64.70
12426;DHT22;6277;49.824;9.562;2023-04-19T07:30:57;14.50;64.80
12426;DHT22;6277;49.824;9.562;2023-04-19T07:33:23;14.60;64.70
12426;DHT22;6277;49.824;9.562;2023-04-19T07:35:52;14.70;64.60
12426;DHT22;6277;49.824;9.562;2023-04-19T07:38:18;14.80;64.50
12426;DHT22;6277;49.824;9.562;2023-04-19T07:40:43;14.80;64.50
12426;DHT22;6277;49.824;9.562;2023-04-19T07:43:09;14.90;64.60
12426;DHT22;6277;49.824;9.562;2023-04-19T07:45:34;15.10;64.80
12426;DHT22;6277;49.824;9.562;2023-04-19T07:48:00;15.20;64.60
12426;DHT22;6277;49.824;9.562;2023-04-19T07:50:25;15.30;64.60
12426;DHT22;6277;49.824;9.562;2023-04-19T07:52:51;15.40;64.70
12426;DHT22;6277;49.824;9.562;2023-04-19T07:55:17;15.60;64.60
12426;DHT22;6277;49.824;9.562;2023-04-19T07:57:43;15.70;64.30
12426;DHT22;6277;49.824;9.562;2023-04-19T08:00:16;15.90;63.90
12426;DHT22;6277;49.824;9.562;2023-04-19T08:02:46;16.00;63.40
12426;DHT22;6277;49.824;9.562;2023-04-19T08:05:15;16.10;63.40
12426;DHT22;6277;49.824;9.562;2023-04-19T08:07:44;16.20;63.30
12426;DHT22;6277;49.824;9.562;2023-04-19T08:10:10;16.30;63.30
12426;DHT22;6277;49.824;9.562;2023-04-19T08:12:36;16.50;63.30
12426;DHT22;6277;49.824;9.562;2023-04-19T08:15:06;16.60;63.20
12426;DHT22;6277;49.824;9.562;2023-04-19T08:17:33;16.80;62.60
12426;DHT22;6277;49.824;9.562;2023-04-19T08:19:58;16.90;62.60
12426;DHT22;6277;49.824;9.562;2023-04-19T08:22:24;17.00;62.40
12426;DHT22;6277;49.824;9.562;2023-04-19T08:24:51;17.10;62.10
12426;DHT22;6277;49.824;9.562;2023-04-19T08:27:17;17.20;61.60
12426;DHT22;6277;49.824;9.562;2023-04-19T08:29:43;17.20;61.20
12426;DHT22;6277;49.824;9.562;2023-04-19T08:32:09;17.20;60.70
12426;DHT22;6277;49.824;9.562;2023-04-19T08:34:36;17.20;60.60
12426;DHT22;6277;49.824;9.562;2023-04-19T08:37:02;17.20;60.20
12426;DHT22;6277;49.824;9.562;2023-04-19T08:39:28;17.10;60.00
12426;DHT22;6277;49.824;9.562;2023-04-19T08:41:54;17.00;60.00
12426;DHT22;6277;49.824;9.562;2023-04-19T08:44:21;16.90;59.80
12426;DHT22;6277;49.824;9.562;2023-04-19T08:46:48;16.80;59.80
12426;DHT22;6277;49.824;9.562;2023-04-19T08:49:15;16.70;59.80
12426;DHT22;6277;49.824;9.562;2023-04-19T08:51:45;16.60;59.90
12426;DHT22;6277;49.824;9.562;2023-04-19T08:54:11;16.60;60.00
12426;DHT22;6277;49.824;9.562;2023-04-19T08:56:37;16.50;60.00
12426;DHT22;6277;49.824;9.562;2023-04-19T08:59:02;16.50;60.10
12426;DHT22;6277;49.824;9.562;2023-04-19T09:01:28;16.50;60.00
12426;DHT22;6277;49.824;9.562;2023-04-19T09:03:53;16.40;60.00
12426;DHT22;6277;49.824;9.562;2023-04-19T09:06:19;16.30;59.90
12426;DHT22;6277;49.824;9.562;2023-04-19T09:08:44;16.30;59.90
12426;DHT22;6277;49.824;9.562;2023-04-19T09:11:10;16.20;59.90
12426;DHT22;6277;49.824;9.562;2023-04-19T09:13:36;16.10;60.00
12426;DHT22;6277;49.824;9.562;2023-04-19T09:16:03;16.10;60.10
12426;DHT22;6277;49.824;9.562;2023-04-19T09:18:29;16.10;60.20
12426;DHT22;6277;49.824;9.562;2023-04-19T09:20:55;16.10;60.30
12426;DHT22;6277;49.824;9.562;2023-04-19T09:23:26;16.10;60.30
12426;DHT22;6277;49.824;9.562;2023-04-19T09:25:57;16.10;60.20
12426;DHT22;6277;49.824;9.562;2023-04-19T09:28:26;16.20;60.10
12426;DHT22;6277;49.824;9.562;2023-04-19T09:30:52;16.20;60.30
12426;DHT22;6277;49.824;9.562;2023-04-19T09:33:34;16.20;60.70
12426;DHT22;6277;49.824;9.562;2023-04-19T09:36:00;16.30;59.90
12426;DHT22;6277;49.824;9.562;2023-04-19T09:38:26;16.30;60.10
12426;DHT22;6277;49.824;9.562;2023-04-19T09:40:53;16.40;60.10
12426;DHT22;6277;49.824;9.562;2023-04-19T09:43:29;16.40;59.90
12426;DHT22;6277;49.824;9.562;2023-04-19T09:45:55;16.40;59.80
12426;DHT22;6277;49.824;9.562;2023-04-19T09:48:22;16.40;59.60
12426;DHT22;6277;49.824;9.562;2023-04-19T09:50:55;16.40;59.30
12426;DHT22;6277;49.824;9.562;2023-04-19T09:53:22;16.40;58.90
12426;DHT22;6277;49.824;9.562;2023-04-19T09:55:48;16.40;59.20
12426;DHT22;6277;49.824;9.562;2023-04-19T09:58:15;16.30;59.30
12426;DHT22;6277;49.824;9.562;2023-04-19T10:00:43;16.30;59.30
12426;DHT22;6277;49.824;9.562;2023-04-19T10:03:09;16.40;59.20
12426;DHT22;6277;49.824;9.562;2023-04-19T10:05:38;16.40;59.10
12426;DHT22;6277;49.824;9.562;2023-04-19T10:08:06;16.40;58.90
12426;DHT22;6277;49.824;9.562;2023-04-19T10:10:32;16.50;58.80
12426;DHT22;6277;49.824;9.562;2023-04-19T10:12:58;16.50;58.70
12426;DHT22;6277;49.824;9.562;2023-04-19T10:15:25;16.40;58.40
12426;DHT22;6277;49.824;9.562;2023-04-19T10:17:52;16.40;58.70
12426;DHT22;6277;49.824;9.562;2023-04-19T10:20:24;16.40;57.90
12426;DHT22;6277;49.824;9.562;2023-04-19T10:22:51;16.30;57.50
12426;DHT22;6277;49.824;9.562;2023-04-19T10:25:17;16.30;57.90
12426;DHT22;6277;49.824;9.562;2023-04-19T10:27:44;16.20;57.80
12426;DHT22;6277;49.824;9.562;2023-04-19T10:30:24;16.20;57.90
12426;DHT22;6277;49.824;9.562;2023-04-19T10:32:58;16.20;57.30
12426;DHT22;6277;49.824;9.562;2023-04-19T10:35:36;16.30;57.80
12426;DHT22;6277;49.824;9.562;2023-04-19T10:38:10;16.40;57.40
12426;DHT22;6277;49.824;9.562;2023-04-19T10:40:57;16.50;57.20
12426;DHT22;6277;49.824;9.562;2023-04-19T10:43:29;16.50;57.10
12426;DHT22;6277;49.824;9.562;2023-04-19T10:46:08;16.60;57.40
12426;DHT22;6277;49.824;9.562;2023-04-19T10:48:36;16.60;56.90
12426;DHT22;6277;49.824;9.562;2023-04-19T10:51:12;16.60;56.90
12426;DHT22;6277;49.824;9.562;2023-04-19T10:56:17;16.60;57.00
12426;DHT22;6277;49.824;9.562;2023-04-19T11:01:41;16.80;56.90
12426;DHT22;6277;49.824;9.562;2023-04-19T11:11:51;17.40;56.30
12426;DHT22;6277;49.824;9.562;2023-04-19T11:14:19;17.50;56.50
12426;DHT22;6277;49.824;9.562;2023-04-19T11:16:45;17.60;56.00
12426;DHT22;6277;49.824;9.562;2023-04-19T11:19:18;17.60;55.70
12426;DHT22;6277;49.824;9.562;2023-04-19T11:21:47;17.50;55.00
12426;DHT22;6277;49.824;9.562;2023-04-19T11:24:13;17.40;54.60
12426;DHT22;6277;49.824;9.562;2023-04-19T11:26:43;17.30;54.90
12426;DHT22;6277;49.824;9.562;2023-04-19T11:29:09;17.20;55.00
12426;DHT22;6277;49.824;9.562;2023-04-19T11:31:35;17.10;55.10
12426;DHT22;6277;49.824;9.562;2023-04-19T11:34:02;17.00;54.80
12426;DHT22;6277;49.824;9.562;2023-04-19T11:36:27;16.90;54.50
12426;DHT22;6277;49.824;9.562;2023-04-19T11:38:53;16.80;54.50
12426;DHT22;6277;49.824;9.562;2023-04-19T11:41:19;16.70;54.60
12426;DHT22;6277;49.824;9.562;2023-04-19T11:43:45;16.60;54.50
12426;DHT22;6277;49.824;9.562;2023-04-19T11:46:12;16.60;54.50
12426;DHT22;6277;49.824;9.562;2023-04-19T11:48:51;16.50;54.60
12426;DHT22;6277;49.824;9.562;2023-04-19T11:51:17;16.50;54.00
12426;DHT22;6277;49.824;9.562;2023-04-19T11:53:43;16.50;54.70
12426;DHT22;6277;49.824;9.562;2023-04-19T11:56:08;16.60;54.50
12426;DHT22;6277;49.824;9.562;2023-04-19T11:58:44;16.60;54.20
12426;DHT22;6277;49.824;9.562;2023-04-19T12:01:19;16.60;53.30
12426;DHT22;6277;49.824;9.562;2023-04-19T12:03:51;16.60;53.90
12426;DHT22;6277;49.824;9.562;2023-04-19T12:06:22;16.60;54.00
12426;DHT22;6277;49.824;9.562;2023-04-19T12:08:49;16.60;53.70
12426;DHT22;6277;49.824;9.562;2023-04-19T12:11:17;16.70;53.60
12426;DHT22;6277;49.824;9.562;2023-04-19T12:14:07;16.80;53.20
12426;DHT22;6277;49.824;9.562;2023-04-19T12:16:33;16.90;52.50
12426;DHT22;6277;49.824;9.562;2023-04-19T12:19:10;16.90;53.30
12426;DHT22;6277;49.824;9.562;2023-04-19T12:21:38;17.10;51.80
12426;DHT22;6277;49.824;9.562;2023-04-19T12:24:04;17.20;52.50
12426;DHT22;6277;49.824;9.562;2023-04-19T12:26:30;17.20;52.10
12426;DHT22;6277;49.824;9.562;2023-04-19T12:28:56;17.30;51.70
12426;DHT22;6277;49.824;9.562;2023-04-19T12:31:22;17.30;51.30
12426;DHT22;6277;49.824;9.562;2023-04-19T12:33:48;17.30;50.80
12426;DHT22;6277;49.824;9.562;2023-04-19T12:36:14;17.30;50.90
12426;DHT22;6277;49.824;9.562;2023-04-19T12:38:39;17.30;50.20
12426;DHT22;6277;49.824;9.562;2023-04-19T12:41:05;17.20;49.90
12426;DHT22;6277;49.824;9.562;2023-04-19T12:43:31;17.20;49.50
12426;DHT22;6277;49.824;9.562;2023-04-19T12:45:57;17.20;49.80
12426;DHT22;6277;49.824;9.562;2023-04-19T12:48:24;17.10;49.80
12426;DHT22;6277;49.824;9.562;2023-04-19T12:50:49;17.20;50.10
12426;DHT22;6277;49.824;9.562;2023-04-19T12:53:15;17.20;50.10
12426;DHT22;6277;49.824;9.562;2023-04-19T12:55:40;17.20;50.20
12426;DHT22;6277;49.824;9.562;2023-04-19T12:58:06;17.30;49.60
12426;DHT22;6277;49.824;9.562;2023-04-19T13:00:32;17.30;49.20
12426;DHT22;6277;49.824;9.562;2023-04-19T13:02:57;17.30;49.10
12426;DHT22;6277;49.824;9.562;2023-04-19T13:05:23;17.30;49.20
12426;DHT22;6277;49.824;9.562;2023-04-19T13:07:48;17.30;49.30
12426;DHT22;6277;49.824;9.562;2023-04-19T13:10:14;17.40;50.00
12426;DHT22;6277;49.824;9.562;2023-04-19T13:12:40;17.40;49.50
12426;DHT22;6277;49.824;9.562;2023-04-19T13:15:06;17.50;49.30
12426;DHT22;6277;49.824;9.562;2023-04-19T13:17:31;17.50;49.00
12426;DHT22;6277;49.824;9.562;2023-04-19T13:19:57;17.60;48.70
12426;DHT22;6277;49.824;9.562;2023-04-19T13:22:23;17.60;48.30
12426;DHT22;6277;49.824;9.562;2023-04-19T13:24:48;17.60;48.20
12426;DHT22;6277;49.824;9.562;2023-04-19T13:27:13;17.60;48.10
12426;DHT22;6277;49.824;9.562;2023-04-19T13:29:39;17.70;47.90
12426;DHT22;6277;49.824;9.562;2023-04-19T13:32:05;17.70;47.90
12426;DHT22;6277;49.824;9.562;2023-04-19T13:34:37;17.80;47.20
12426;DHT22;6277;49.824;9.562;2023-04-19T13:37:03;17.80;47.20
12426;DHT22;6277;49.824;9.562;2023-04-19T13:39:28;17.80;46.80
12426;DHT22;6277;49.824;9.562;2023-04-19T13:41:54;17.90;46.90
12426;DHT22;6277;49.824;9.562;2023-04-19T13:44:19;17.90;46.80
12426;DHT22;6277;49.824;9.562;2023-04-19T13:46:45;18.00;46.60
12426;DHT22;6277;49.824;9.562;2023-04-19T13:49:10;18.10;46.60
12426;DHT22;6277;49.824;9.562;2023-04-19T13:51:36;18.20;46.40
12426;DHT22;6277;49.824;9.562;2023-04-19T13:54:01;18.30;46.00
12426;DHT22;6277;49.824;9.562;2023-04-19T13:56:27;18.40;45.60
12426;DHT22;6277;49.824;9.562;2023-04-19T13:58:54;18.40;45.70
12426;DHT22;6277;49.824;9.562;2023-04-19T14:01:20;18.50;45.80
12426;DHT22;6277;49.824;9.562;2023-04-19T14:03:45;18.60;45.70
12426;DHT22;6277;49.824;9.562;2023-04-19T14:06:11;18.70;45.40
12426;DHT22;6277;49.824;9.562;2023-04-19T14:08:37;18.80;45.50
12426;DHT22;6277;49.824;9.562;2023-04-19T14:11:02;18.90;45.50
12426;DHT22;6277;49.824;9.562;2023-04-19T14:13:28;19.00;45.10
12426;DHT22;6277;49.824;9.562;2023-04-19T14:15:53;19.10;45.20
12426;DHT22;6277;49.824;9.562;2023-04-19T14:18:19;19.20;45.30
12426;DHT22;6277;49.824;9.562;2023-04-19T14:20:45;19.30;44.70
12426;DHT22;6277;49.824;9.562;2023-04-19T14:23:10;19.40;44.70
12426;DHT22;6277;49.824;9.562;2023-04-19T14:25:36;19.40;44.70
12426;DHT22;6277;49.824;9.562;2023-04-19T14:28:01;19.60;44.90
12426;DHT22;6277;49.824;9.562;2023-04-19T14:30:27;19.70;44.20
12426;DHT22;6277;49.824;9.562;2023-04-19T14:32:52;19.80;43.80
12426;DHT22;6277;49.824;9.562;2023-04-19T14:35:18;19.80;43.80
12426;DHT22;6277;49.824;9.562;2023-04-19T14:37:44;19.90;43.80
12426;DHT22;6277;49.824;9.562;2023-04-19T14:40:11;20.00;43.30
12426;DHT22;6277;49.824;9.562;2023-04-19T14:42:36;20.00;43.30
12426;DHT22;6277;49.824;9.562;2023-04-19T14:45:02;20.10;43.20
12426;DHT22;6277;49.824;9.562;2023-04-19T14:47:28;20.10;42.80
12426;DHT22;6277;49.824;9.562;2023-04-19T14:49:53;20.10;42.70
12426;DHT22;6277;49.824;9.562;2023-04-19T14:52:19;20.20;42.70
12426;DHT22;6277;49.824;9.562;2023-04-19T14:54:45;20.20;42.90
12426;DHT22;6277;49.824;9.562;2023-04-19T14:57:12;20.30;42.60
12426;DHT22;6277;49.824;9.562;2023-04-19T14:59:37;20.30;42.40
12426;DHT22;6277;49.824;9.562;2023-04-19T15:02:03;20.40;42.20
12426;DHT22;6277;49.824;9.562;2023-04-19T15:04:29;20.40;42.10
12426;DHT22;6277;49.824;9.562;2023-04-19T15:06:54;20.50;42.00
12426;DHT22;6277;49.824;9.562;2023-04-19T15:09:20;20.50;41.70
12426;DHT22;6277;49.824;9.562;2023-04-19T15:11:45;20.60;41.70
12426;DHT22;6277;49.824;9.562;2023-04-19T15:14:11;20.70;42.30
12426;DHT22;6277;49.824;9.562;2023-04-19T15:16:36;20.80;42.50
12426;DHT22;6277;49.824;9.562;2023-04-19T15:19:02;21.00;42.00
12426;DHT22;6277;49.824;9.562;2023-04-19T15:21:29;21.10;41.20
12426;DHT22;6277;49.824;9.562;2023-04-19T15:23:54;21.10;40.20
12426;DHT22;6277;49.824;9.562;2023-04-19T15:26:20;21.00;40.30
12426;DHT22;6277;49.824;9.562;2023-04-19T15:28:45;21.00;40.30
12426;DHT22;6277;49.824;9.562;2023-04-19T15:31:11;21.00;40.80
12426;DHT22;6277;49.824;9.562;2023-04-19T15:33:37;21.00;40.70
12426;DHT22;6277;49.824;9.562;2023-04-19T15:36:03;21.10;40.70
12426;DHT22;6277;49.824;9.562;2023-04-19T15:38:30;21.30;41.10
12426;DHT22;6277;49.824;9.562;2023-04-19T15:40:57;21.40;40.60
12426;DHT22;6277;49.824;9.562;2023-04-19T15:43:24;21.50;40.70
12426;DHT22;6277;49.824;9.562;2023-04-19T15:45:50;21.70;40.10
12426;DHT22;6277;49.824;9.562;2023-04-19T15:48:15;21.80;40.40
12426;DHT22;6277;49.824;9.562;2023-04-19T15:50:41;21.80;39.70
12426;DHT22;6277;49.824;9.562;2023-04-19T15:53:07;21.80;39.10